createdAt,value
2016-05-28T00:00:01.845Z,17.6
2016-05-28T00:00:04.641Z,17.5
2016-05-28T00:00:07.438Z,17.5
2016-05-28T00:00:09.704Z,17.5
2016-05-28T00:00:13.470Z,17.4
2016-05-28T00:00:16.407Z,17.4
2016-05-28T00:00:19.360Z,17.5
2016-05-28T00:00:22.298Z,17.4
2016-05-28T00:00:26.063Z,17.5
2016-05-28T00:00:28.860Z,17.4
2016-05-28T00:00:31.657Z,17.5
2016-05-28T00:00:34.595Z,17.4
2016-05-28T00:00:38.360Z,17.5
2016-05-28T00:00:41.157Z,17.5
2016-05-28T00:00:43.954Z,17.5
2016-05-28T00:00:46.894Z,17.5
2016-05-28T00:00:50.801Z,17.5
2016-05-28T00:00:53.598Z,17.5
2016-05-28T00:00:56.551Z,17.5
2016-05-28T00:00:59.348Z,17.6
2016-05-28T00:01:03.269Z,17.5
2016-05-28T00:01:06.207Z,17.5
2016-05-28T00:01:09.144Z,17.6
2016-05-28T00:01:12.082Z,17.6
2016-05-28T00:01:16.004Z,17.5
2016-05-28T00:01:18.801Z,17.5
2016-05-28T00:01:21.754Z,17.6
2016-05-28T00:01:24.691Z,17.6
2016-05-28T00:01:28.457Z,17.6
2016-05-28T00:01:31.394Z,17.5
2016-05-28T00:01:34.348Z,17.6
2016-05-28T00:01:37.301Z,17.5
2016-05-28T00:01:41.082Z,17.6
2016-05-28T00:01:43.879Z,17.6
2016-05-28T00:01:46.851Z,17.5
2016-05-28T00:01:49.788Z,17.5
2016-05-28T00:01:53.710Z,17.6
2016-05-28T00:01:56.632Z,17.6
2016-05-28T00:01:59.429Z,17.6
2016-05-28T00:02:02.366Z,17.6
2016-05-28T00:02:06.288Z,17.6
2016-05-28T00:02:09.366Z,17.7
2016-05-28T00:02:12.304Z,17.6
2016-05-28T00:02:15.241Z,17.6
2016-05-28T00:02:19.163Z,17.6
2016-05-28T00:02:21.960Z,17.5
2016-05-28T00:02:24.897Z,17.5
2016-05-28T00:02:27.851Z,17.5
2016-05-28T00:02:31.616Z,17.5
2016-05-28T00:02:34.569Z,17.6
2016-05-28T00:02:37.522Z,17.5
2016-05-28T00:02:40.460Z,17.5
2016-05-28T00:02:44.382Z,17.6
2016-05-28T00:02:47.338Z,17.5
2016-05-28T00:02:50.119Z,17.6
2016-05-28T00:02:52.760Z,17.5
2016-05-28T00:02:56.541Z,17.5
2016-05-28T00:02:59.510Z,17.6
2016-05-28T00:03:02.307Z,17.5
2016-05-28T00:03:05.244Z,17.5
2016-05-28T00:03:09.166Z,17.6
2016-05-28T00:03:11.947Z,17.5
2016-05-28T00:03:14.900Z,17.5
2016-05-28T00:03:17.682Z,17.6
2016-05-28T00:03:21.447Z,17.5
2016-05-28T00:03:24.400Z,17.5
2016-05-28T00:03:27.182Z,17.6
2016-05-28T00:03:29.979Z,17.5
2016-05-28T00:03:33.744Z,17.6
2016-05-28T00:03:36.682Z,17.5
2016-05-28T00:03:39.635Z,17.5
2016-05-28T00:03:42.432Z,17.5
2016-05-28T00:03:46.354Z,17.4
2016-05-28T00:03:49.152Z,17.4
2016-05-28T00:03:52.090Z,17.5
2016-05-28T00:03:55.027Z,17.4
2016-05-28T00:03:58.793Z,17.5
2016-05-28T00:04:01.731Z,17.4
2016-05-28T00:04:04.668Z,17.5
2016-05-28T00:04:07.309Z,17.4
2016-05-28T00:04:11.246Z,17.5
2016-05-28T00:04:14.184Z,17.5
2016-05-28T00:04:17.121Z,17.5
2016-05-28T00:04:19.902Z,17.4
2016-05-28T00:04:23.840Z,17.5
2016-05-28T00:04:26.934Z,17.5
2016-05-28T00:04:29.902Z,17.3
2016-05-28T00:04:34.121Z,17.4
2016-05-28T00:04:36.934Z,17.5
2016-05-28T00:04:40.106Z,17.3
2016-05-28T00:04:42.762Z,17.4
2016-05-28T00:04:46.546Z,17.4
2016-05-28T00:04:49.827Z,17.5
2016-05-28T00:04:52.812Z,17.5
2016-05-28T00:04:55.468Z,17.5
2016-05-28T00:04:59.843Z,17.5
2016-05-28T00:05:02.827Z,17.5
2016-05-28T00:05:05.796Z,17.5
2016-05-28T00:05:09.812Z,17.5
2016-05-28T00:05:12.905Z,17.5
2016-05-28T00:05:16.343Z,17.5
2016-05-28T00:05:20.124Z,17.5
2016-05-28T00:05:23.062Z,17.4
2016-05-28T00:05:26.280Z,17.4
2016-05-28T00:05:29.874Z,17.4
2016-05-28T00:05:33.796Z,17.4
2016-05-28T00:05:36.577Z,17.5
2016-05-28T00:05:39.515Z,17.5
2016-05-28T00:05:42.468Z,17.5
2016-05-28T00:05:46.390Z,17.5
2016-05-28T00:05:49.346Z,17.5
2016-05-28T00:05:52.283Z,17.5
2016-05-28T00:05:55.080Z,17.5
2016-05-28T00:05:58.846Z,17.4
2016-05-28T00:06:01.643Z,17.4
2016-05-28T00:06:04.580Z,17.5
2016-05-28T00:06:07.533Z,17.5
2016-05-28T00:06:11.471Z,17.4
2016-05-28T00:06:14.268Z,17.5
2016-05-28T00:06:17.049Z,17.5
2016-05-28T00:06:19.987Z,17.5
2016-05-28T00:06:23.908Z,17.4
2016-05-28T00:06:26.549Z,17.5
2016-05-28T00:06:29.487Z,17.5
2016-05-28T00:06:32.440Z,17.5
2016-05-28T00:06:36.377Z,17.4
2016-05-28T00:06:39.315Z,17.4
2016-05-28T00:06:42.268Z,17.5
2016-05-28T00:06:45.205Z,17.5
2016-05-28T00:06:49.129Z,17.5
2016-05-28T00:06:51.926Z,17.5
2016-05-28T00:06:54.707Z,17.5
2016-05-28T00:06:57.660Z,17.5
2016-05-28T00:07:01.582Z,17.6
2016-05-28T00:07:04.520Z,17.5
2016-05-28T00:07:07.457Z,17.6
2016-05-28T00:07:10.395Z,17.6
2016-05-28T00:07:14.301Z,17.5
2016-05-28T00:07:17.098Z,17.5
2016-05-28T00:07:20.035Z,17.5
2016-05-28T00:07:22.989Z,17.6
2016-05-28T00:07:26.629Z,17.6
2016-05-28T00:07:29.567Z,17.6
2016-05-28T00:07:32.504Z,17.6
2016-05-28T00:07:35.442Z,17.5
2016-05-28T00:07:39.207Z,17.5
2016-05-28T00:07:42.160Z,17.5
2016-05-28T00:07:45.098Z,17.5
2016-05-28T00:07:48.055Z,17.5
2016-05-28T00:07:51.821Z,17.5
2016-05-28T00:07:54.774Z,17.4
2016-05-28T00:07:57.727Z,17.6
2016-05-28T00:08:00.649Z,17.5
2016-05-28T00:08:04.586Z,17.6
2016-05-28T00:08:07.368Z,17.5
2016-05-28T00:08:10.321Z,17.6
2016-05-28T00:08:13.289Z,17.6
2016-05-28T00:08:17.055Z,17.5
2016-05-28T00:08:19.836Z,17.5
2016-05-28T00:08:22.774Z,17.5
2016-05-28T00:08:25.727Z,17.6
2016-05-28T00:08:29.649Z,17.6
2016-05-28T00:08:32.430Z,17.6
2016-05-28T00:08:35.383Z,17.6
2016-05-28T00:08:38.321Z,17.6
2016-05-28T00:08:42.243Z,17.6
2016-05-28T00:08:45.180Z,17.6
2016-05-28T00:08:47.979Z,17.7
2016-05-28T00:08:50.776Z,17.6
2016-05-28T00:08:54.682Z,17.6
2016-05-28T00:08:57.479Z,17.6
2016-05-28T00:09:00.416Z,17.6
2016-05-28T00:09:03.370Z,17.6
2016-05-28T00:09:07.276Z,17.6
2016-05-28T00:09:10.213Z,17.6
2016-05-28T00:09:13.166Z,17.6
2016-05-28T00:09:15.948Z,17.6
2016-05-28T00:09:19.729Z,17.7
2016-05-28T00:09:22.510Z,17.6
2016-05-28T00:09:25.448Z,17.7
2016-05-28T00:09:28.401Z,17.7
2016-05-28T00:09:32.307Z,17.7
2016-05-28T00:09:35.245Z,17.6
2016-05-28T00:09:38.198Z,17.7
2016-05-28T00:09:41.135Z,17.7
2016-05-28T00:09:45.057Z,17.7
2016-05-28T00:09:47.997Z,17.7
2016-05-28T00:09:50.825Z,17.6
2016-05-28T00:09:53.778Z,17.7
2016-05-28T00:09:57.684Z,17.6
2016-05-28T00:10:00.622Z,17.6
2016-05-28T00:10:03.434Z,17.6
2016-05-28T00:10:06.356Z,17.6
2016-05-28T00:10:10.137Z,17.7
2016-05-28T00:10:13.075Z,17.7
2016-05-28T00:10:16.028Z,17.7
2016-05-28T00:10:18.809Z,17.6
2016-05-28T00:10:22.731Z,17.7
2016-05-28T00:10:25.512Z,17.7
2016-05-28T00:10:28.465Z,17.7
2016-05-28T00:10:31.403Z,17.7
2016-05-28T00:10:35.325Z,17.8
2016-05-28T00:10:38.122Z,17.6
2016-05-28T00:10:41.075Z,17.7
2016-05-28T00:10:43.856Z,17.7
2016-05-28T00:10:47.501Z,17.7
2016-05-28T00:10:50.469Z,17.6
2016-05-28T00:10:53.407Z,17.7
2016-05-28T00:10:56.188Z,17.8
2016-05-28T00:10:59.969Z,17.7
2016-05-28T00:11:02.922Z,17.7
2016-05-28T00:11:05.860Z,17.6
2016-05-28T00:11:08.657Z,17.6
2016-05-28T00:11:12.422Z,17.6
2016-05-28T00:11:15.219Z,17.7
2016-05-28T00:11:17.844Z,17.8
2016-05-28T00:11:20.641Z,17.8
2016-05-28T00:11:24.407Z,17.8
2016-05-28T00:11:27.344Z,17.8
2016-05-28T00:11:30.141Z,17.8
2016-05-28T00:11:32.922Z,17.7
2016-05-28T00:11:36.844Z,17.7
2016-05-28T00:11:39.797Z,17.7
2016-05-28T00:11:42.735Z,17.6
2016-05-28T00:11:45.672Z,17.6
2016-05-28T00:11:49.612Z,17.6
2016-05-28T00:11:52.409Z,17.7
2016-05-28T00:11:55.346Z,17.6
2016-05-28T00:11:58.284Z,17.6
2016-05-28T00:12:02.065Z,17.7
2016-05-28T00:12:04.846Z,17.7
2016-05-28T00:12:07.799Z,17.7
2016-05-28T00:12:10.440Z,17.6
2016-05-28T00:12:14.362Z,17.6
2016-05-28T00:12:17.315Z,17.6
2016-05-28T00:12:20.112Z,17.6
2016-05-28T00:12:23.065Z,17.6
2016-05-28T00:12:27.018Z,17.6
2016-05-28T00:12:29.956Z,17.7
2016-05-28T00:12:32.893Z,17.6
2016-05-28T00:12:35.831Z,17.6
2016-05-28T00:12:39.643Z,17.7
2016-05-28T00:12:42.440Z,17.6
2016-05-28T00:12:45.378Z,17.7
2016-05-28T00:12:48.318Z,17.7
2016-05-28T00:12:52.240Z,17.7
2016-05-28T00:12:55.177Z,17.7
2016-05-28T00:12:58.115Z,17.6
2016-05-28T00:13:01.052Z,17.6
2016-05-28T00:13:04.990Z,17.8
2016-05-28T00:13:07.927Z,17.7
2016-05-28T00:13:10.724Z,17.7
2016-05-28T00:13:13.677Z,17.6
2016-05-28T00:13:17.599Z,17.6
2016-05-28T00:13:20.537Z,17.6
2016-05-28T00:13:23.177Z,17.6
2016-05-28T00:13:26.131Z,17.6
2016-05-28T00:13:29.912Z,17.6
2016-05-28T00:13:32.724Z,17.6
2016-05-28T00:13:35.662Z,17.6
2016-05-28T00:13:38.599Z,17.6
2016-05-28T00:13:42.521Z,17.6
2016-05-28T00:13:45.459Z,17.6
2016-05-28T00:13:48.243Z,17.5
2016-05-28T00:13:51.196Z,17.5
2016-05-28T00:13:55.118Z,17.5
2016-05-28T00:13:58.071Z,17.5
2016-05-28T00:14:01.009Z,17.5
2016-05-28T00:14:03.821Z,17.6
2016-05-28T00:14:07.602Z,17.6
2016-05-28T00:14:10.540Z,17.6
2016-05-28T00:14:13.477Z,17.6
2016-05-28T00:14:16.274Z,17.6
2016-05-28T00:14:20.196Z,17.6
2016-05-28T00:14:22.977Z,17.6
2016-05-28T00:14:25.915Z,17.6
2016-05-28T00:14:28.868Z,17.6
2016-05-28T00:14:32.790Z,17.6
2016-05-28T00:14:35.727Z,17.6
2016-05-28T00:14:38.680Z,17.5
2016-05-28T00:14:41.634Z,17.5
2016-05-28T00:14:45.555Z,17.5
2016-05-28T00:14:48.511Z,17.5
2016-05-28T00:14:51.292Z,17.4
2016-05-28T00:14:54.245Z,17.4
2016-05-28T00:14:58.011Z,17.4
2016-05-28T00:15:00.807Z,17.3
2016-05-28T00:15:03.761Z,17.4
2016-05-28T00:15:06.745Z,17.4
2016-05-28T00:15:10.511Z,17.4
2016-05-28T00:15:13.292Z,17.4
2016-05-28T00:15:16.229Z,17.4
2016-05-28T00:15:19.011Z,17.4
2016-05-28T00:15:22.792Z,17.4
2016-05-28T00:15:25.573Z,17.3
2016-05-28T00:15:28.526Z,17.4
2016-05-28T00:15:31.323Z,17.4
2016-05-28T00:15:35.245Z,17.5
2016-05-28T00:15:38.182Z,17.5
2016-05-28T00:15:40.979Z,17.5
2016-05-28T00:15:43.917Z,17.5
2016-05-28T00:15:47.842Z,17.5
2016-05-28T00:15:50.623Z,17.6
2016-05-28T00:15:53.404Z,17.5
2016-05-28T00:15:56.357Z,17.5
2016-05-28T00:16:00.279Z,17.6
2016-05-28T00:16:03.217Z,17.5
2016-05-28T00:16:06.154Z,17.5
2016-05-28T00:16:09.107Z,17.5
2016-05-28T00:16:13.029Z,17.5
2016-05-28T00:16:15.982Z,17.6
2016-05-28T00:16:18.920Z,17.5
2016-05-28T00:16:21.717Z,17.6
2016-05-28T00:16:25.639Z,17.5
2016-05-28T00:16:28.592Z,17.6
2016-05-28T00:16:31.373Z,17.6
2016-05-28T00:16:34.310Z,17.5
2016-05-28T00:16:38.248Z,17.6
2016-05-28T00:16:41.185Z,17.6
2016-05-28T00:16:44.139Z,17.5
2016-05-28T00:16:47.094Z,17.5
2016-05-28T00:16:51.016Z,17.6
2016-05-28T00:16:53.953Z,17.6
2016-05-28T00:16:56.906Z,17.6
2016-05-28T00:16:59.844Z,17.6
2016-05-28T00:17:03.625Z,17.7
2016-05-28T00:17:06.266Z,17.6
2016-05-28T00:17:09.062Z,17.6
2016-05-28T00:17:12.000Z,17.6
2016-05-28T00:17:15.766Z,17.7
2016-05-28T00:17:18.719Z,17.6
2016-05-28T00:17:21.656Z,17.6
2016-05-28T00:17:24.437Z,17.7
2016-05-28T00:17:28.359Z,17.6
2016-05-28T00:17:31.156Z,17.7
2016-05-28T00:17:34.094Z,17.6
2016-05-28T00:17:37.047Z,17.7
2016-05-28T00:17:40.969Z,17.7
2016-05-28T00:17:43.750Z,17.6
2016-05-28T00:17:46.687Z,17.7
2016-05-28T00:17:49.487Z,17.6
2016-05-28T00:17:53.409Z,17.7
2016-05-28T00:17:56.362Z,17.6
2016-05-28T00:17:59.300Z,17.6
2016-05-28T00:18:02.081Z,17.6
2016-05-28T00:18:06.003Z,17.6
2016-05-28T00:18:08.644Z,17.6
2016-05-28T00:18:11.440Z,17.6
2016-05-28T00:18:14.237Z,17.6
2016-05-28T00:18:18.003Z,17.6
2016-05-28T00:18:20.940Z,17.5
2016-05-28T00:18:23.894Z,17.5
2016-05-28T00:18:26.690Z,17.6
2016-05-28T00:18:30.597Z,17.5
2016-05-28T00:18:33.550Z,17.6
2016-05-28T00:18:36.487Z,17.5
2016-05-28T00:18:39.425Z,17.5
2016-05-28T00:18:43.347Z,17.5
2016-05-28T00:18:46.300Z,17.5
2016-05-28T00:18:49.240Z,17.5
2016-05-28T00:18:52.037Z,17.4
2016-05-28T00:18:55.803Z,17.5
2016-05-28T00:18:58.756Z,17.5
2016-05-28T00:19:01.709Z,17.5
2016-05-28T00:19:04.647Z,17.4
2016-05-28T00:19:08.568Z,17.5
2016-05-28T00:19:11.522Z,17.5
2016-05-28T00:19:14.459Z,17.5
2016-05-28T00:19:17.256Z,17.4
2016-05-28T00:19:21.193Z,17.5
2016-05-28T00:19:24.240Z,17.5
2016-05-28T00:19:27.193Z,17.5
2016-05-28T00:19:31.943Z,17.4
2016-05-28T00:19:35.209Z,17.4
2016-05-28T00:19:38.334Z,17.5
2016-05-28T00:19:42.412Z,17.5
2016-05-28T00:19:46.443Z,17.5
2016-05-28T00:19:49.775Z,17.4
2016-05-28T00:19:54.118Z,17.4
2016-05-28T00:19:58.196Z,17.5
2016-05-28T00:20:00.853Z,17.5
2016-05-28T00:20:04.478Z,17.5
2016-05-28T00:20:07.275Z,17.4
2016-05-28T00:20:10.603Z,17.5
2016-05-28T00:20:13.087Z,17.4
2016-05-28T00:20:17.243Z,17.4
2016-05-28T00:20:20.196Z,17.5
2016-05-28T00:20:22.993Z,17.4
2016-05-28T00:20:25.962Z,17.4
2016-05-28T00:20:29.603Z,17.4
2016-05-28T00:20:33.103Z,17.4
2016-05-28T00:20:36.040Z,17.4
2016-05-28T00:20:39.962Z,17.4
2016-05-28T00:20:42.915Z,17.4
2016-05-28T00:20:45.853Z,17.4
2016-05-28T00:20:48.808Z,17.4
2016-05-28T00:20:52.730Z,17.5
2016-05-28T00:20:55.511Z,17.3
2016-05-28T00:20:58.464Z,17.5
2016-05-28T00:21:01.402Z,17.4
2016-05-28T00:21:05.323Z,17.4
2016-05-28T00:21:08.105Z,17.5
2016-05-28T00:21:11.058Z,17.5
2016-05-28T00:21:13.995Z,17.5
2016-05-28T00:21:17.917Z,17.5
2016-05-28T00:21:20.855Z,17.5
2016-05-28T00:21:23.652Z,17.6
2016-05-28T00:21:26.589Z,17.5
2016-05-28T00:21:30.370Z,17.5
2016-05-28T00:21:33.152Z,17.5
2016-05-28T00:21:35.948Z,17.6
2016-05-28T00:21:38.886Z,17.6
2016-05-28T00:21:42.667Z,17.6
2016-05-28T00:21:45.605Z,17.6
2016-05-28T00:21:48.561Z,17.6
2016-05-28T00:21:51.201Z,17.5
2016-05-28T00:21:55.123Z,17.6
2016-05-28T00:21:57.764Z,17.5
2016-05-28T00:22:00.717Z,17.6
2016-05-28T00:22:03.670Z,17.6
2016-05-28T00:22:07.592Z,17.6
2016-05-28T00:22:10.217Z,17.6
2016-05-28T00:22:13.014Z,17.5
2016-05-28T00:22:15.951Z,17.5
2016-05-28T00:22:19.873Z,17.5
2016-05-28T00:22:22.811Z,17.5
2016-05-28T00:22:25.608Z,17.5
2016-05-28T00:22:28.561Z,17.4
2016-05-28T00:22:32.170Z,17.5
2016-05-28T00:22:34.967Z,17.4
2016-05-28T00:22:37.905Z,17.4
2016-05-28T00:22:40.530Z,17.4
2016-05-28T00:22:44.451Z,17.5
2016-05-28T00:22:47.423Z,17.5
2016-05-28T00:22:50.064Z,17.5
2016-05-28T00:22:53.033Z,17.5
2016-05-28T00:22:56.814Z,17.5
2016-05-28T00:22:59.767Z,17.5
2016-05-28T00:23:02.720Z,17.6
2016-05-28T00:23:05.658Z,17.5
2016-05-28T00:23:09.439Z,17.6
2016-05-28T00:23:12.392Z,17.6
2016-05-28T00:23:15.329Z,17.5
2016-05-28T00:23:18.111Z,17.5
2016-05-28T00:23:21.876Z,17.5
2016-05-28T00:23:24.673Z,17.6
2016-05-28T00:23:27.611Z,17.5
2016-05-28T00:23:30.392Z,17.6
2016-05-28T00:23:34.158Z,17.5
2016-05-28T00:23:36.954Z,17.5
2016-05-28T00:23:39.892Z,17.6
2016-05-28T00:23:42.829Z,17.5
2016-05-28T00:23:46.611Z,17.6
2016-05-28T00:23:49.551Z,17.5
2016-05-28T00:23:52.332Z,17.6
2016-05-28T00:23:55.286Z,17.6
2016-05-28T00:23:59.067Z,17.6
2016-05-28T00:24:02.020Z,17.6
2016-05-28T00:24:04.973Z,17.6
2016-05-28T00:24:07.770Z,17.6
2016-05-28T00:24:11.536Z,17.6
2016-05-28T00:24:14.473Z,17.6
2016-05-28T00:24:17.254Z,17.6
2016-05-28T00:24:20.207Z,17.6
2016-05-28T00:24:24.129Z,17.6
2016-05-28T00:24:26.770Z,17.6
2016-05-28T00:24:29.723Z,17.6
2016-05-28T00:24:32.661Z,17.6
2016-05-28T00:24:36.270Z,17.6
2016-05-28T00:24:39.067Z,17.5
2016-05-28T00:24:42.020Z,17.5
2016-05-28T00:24:44.957Z,17.6
2016-05-28T00:24:48.725Z,17.6
2016-05-28T00:24:51.663Z,17.5
2016-05-28T00:24:54.459Z,17.5
2016-05-28T00:24:57.428Z,17.6
2016-05-28T00:25:01.350Z,17.6
2016-05-28T00:25:04.131Z,17.5
2016-05-28T00:25:07.069Z,17.5
2016-05-28T00:25:10.006Z,17.5
2016-05-28T00:25:13.788Z,17.5
2016-05-28T00:25:16.725Z,17.5
2016-05-28T00:25:19.678Z,17.5
2016-05-28T00:25:22.631Z,17.5
2016-05-28T00:25:26.538Z,17.6
2016-05-28T00:25:29.319Z,17.6
2016-05-28T00:25:32.272Z,17.6
2016-05-28T00:25:35.209Z,17.6
2016-05-28T00:25:39.147Z,17.5
2016-05-28T00:25:42.084Z,17.5
2016-05-28T00:25:45.038Z,17.6
2016-05-28T00:25:47.977Z,17.6
2016-05-28T00:25:51.899Z,17.5
2016-05-28T00:25:54.540Z,17.5
2016-05-28T00:25:57.477Z,17.5
2016-05-28T00:26:00.430Z,17.6
2016-05-28T00:26:04.352Z,17.5
2016-05-28T00:26:07.290Z,17.4
2016-05-28T00:26:10.243Z,17.5
2016-05-28T00:26:12.883Z,17.5
2016-05-28T00:26:16.790Z,17.4
2016-05-28T00:26:19.743Z,17.4
2016-05-28T00:26:22.680Z,17.4
2016-05-28T00:26:25.618Z,17.4
2016-05-28T00:26:29.243Z,17.4
2016-05-28T00:26:32.180Z,17.4
2016-05-28T00:26:34.977Z,17.5
2016-05-28T00:26:37.930Z,17.3
2016-05-28T00:26:41.852Z,17.4
2016-05-28T00:26:44.633Z,17.5
2016-05-28T00:26:47.434Z,17.4
2016-05-28T00:26:50.075Z,17.5
2016-05-28T00:26:53.997Z,17.4
2016-05-28T00:26:56.794Z,17.5
2016-05-28T00:26:59.747Z,17.4
2016-05-28T00:27:02.528Z,17.4
2016-05-28T00:27:06.465Z,17.4
2016-05-28T00:27:09.403Z,17.4
2016-05-28T00:27:12.356Z,17.5
2016-05-28T00:27:15.294Z,17.5
2016-05-28T00:27:18.919Z,17.5
2016-05-28T00:27:21.872Z,17.5
2016-05-28T00:27:24.825Z,17.5
2016-05-28T00:27:27.762Z,17.5
2016-05-28T00:27:31.684Z,17.4
2016-05-28T00:27:34.622Z,17.4
2016-05-28T00:27:37.262Z,17.5
2016-05-28T00:27:40.200Z,17.5
2016-05-28T00:27:44.122Z,17.5
2016-05-28T00:27:47.059Z,17.4
2016-05-28T00:27:50.030Z,17.5
2016-05-28T00:27:52.967Z,17.5
2016-05-28T00:27:56.889Z,17.4
2016-05-28T00:27:59.842Z,17.5
2016-05-28T00:28:02.639Z,17.5
2016-05-28T00:28:05.421Z,17.5
2016-05-28T00:28:09.358Z,17.5
2016-05-28T00:28:12.155Z,17.6
2016-05-28T00:28:15.108Z,17.5
2016-05-28T00:28:17.889Z,17.5
2016-05-28T00:28:21.514Z,17.5
2016-05-28T00:28:24.155Z,17.5
2016-05-28T00:28:27.108Z,17.5
2016-05-28T00:28:30.046Z,17.4
2016-05-28T00:28:33.967Z,17.4
2016-05-28T00:28:37.233Z,17.5
2016-05-28T00:28:40.030Z,17.4
2016-05-28T00:28:42.967Z,17.5
2016-05-28T00:28:46.889Z,17.5
2016-05-28T00:28:49.861Z,17.5
2016-05-28T00:28:52.642Z,17.5
2016-05-28T00:28:55.424Z,17.5
2016-05-28T00:28:59.205Z,17.5
2016-05-28T00:29:02.002Z,17.5
2016-05-28T00:29:04.799Z,17.5
2016-05-28T00:29:07.580Z,17.5
2016-05-28T00:29:11.502Z,17.5
2016-05-28T00:29:14.283Z,17.5
2016-05-28T00:29:17.236Z,17.5
2016-05-28T00:29:20.033Z,17.5
2016-05-28T00:29:23.955Z,17.4
2016-05-28T00:29:26.908Z,17.5
2016-05-28T00:29:29.877Z,17.4
2016-05-28T00:29:32.517Z,17.4
2016-05-28T00:29:36.439Z,17.3
2016-05-28T00:29:39.220Z,17.5
2016-05-28T00:29:42.017Z,17.4
2016-05-28T00:29:44.799Z,17.5
2016-05-28T00:29:48.723Z,17.5
2016-05-28T00:29:51.677Z,17.5
2016-05-28T00:29:54.630Z,17.5
2016-05-28T00:29:57.427Z,17.5
2016-05-28T00:30:01.348Z,17.5
2016-05-28T00:30:04.286Z,17.5
2016-05-28T00:30:07.239Z,17.5
2016-05-28T00:30:10.177Z,17.6
2016-05-28T00:30:13.973Z,17.6
2016-05-28T00:30:16.927Z,17.6
2016-05-28T00:30:19.880Z,17.5
2016-05-28T00:30:22.833Z,17.6
2016-05-28T00:30:26.739Z,17.5
2016-05-28T00:30:29.692Z,17.5
2016-05-28T00:30:32.489Z,17.6
2016-05-28T00:30:35.427Z,17.6
2016-05-28T00:30:39.052Z,17.5
2016-05-28T00:30:41.989Z,17.5
2016-05-28T00:30:44.942Z,17.5
2016-05-28T00:30:47.882Z,17.5
2016-05-28T00:30:51.804Z,17.4
2016-05-28T00:30:54.585Z,17.5
2016-05-28T00:30:57.522Z,17.5
2016-05-28T00:31:00.475Z,17.5
2016-05-28T00:31:04.397Z,17.5
2016-05-28T00:31:07.335Z,17.5
2016-05-28T00:31:10.288Z,17.5
2016-05-28T00:31:13.069Z,17.5
2016-05-28T00:31:16.991Z,17.5
2016-05-28T00:31:19.913Z,17.5
2016-05-28T00:31:22.866Z,17.5
2016-05-28T00:31:25.819Z,17.5
2016-05-28T00:31:29.600Z,17.6
2016-05-28T00:31:32.538Z,17.5
2016-05-28T00:31:35.335Z,17.6
2016-05-28T00:31:37.960Z,17.5
2016-05-28T00:31:41.882Z,17.5
2016-05-28T00:31:44.819Z,17.5
2016-05-28T00:31:47.619Z,17.5
2016-05-28T00:31:50.572Z,17.5
2016-05-28T00:31:54.494Z,17.5
2016-05-28T00:31:57.432Z,17.6
2016-05-28T00:32:00.385Z,17.5
2016-05-28T00:32:03.166Z,17.5
2016-05-28T00:32:06.775Z,17.5
2016-05-28T00:32:09.572Z,17.5
2016-05-28T00:32:12.510Z,17.4
2016-05-28T00:32:15.447Z,17.4
2016-05-28T00:32:19.385Z,17.4
2016-05-28T00:32:22.322Z,17.4
2016-05-28T00:32:25.260Z,17.4
2016-05-28T00:32:28.057Z,17.4
2016-05-28T00:32:31.978Z,17.3
2016-05-28T00:32:34.916Z,17.3
2016-05-28T00:32:37.713Z,17.4
2016-05-28T00:32:40.666Z,17.3
2016-05-28T00:32:44.447Z,17.4
2016-05-28T00:32:47.260Z,17.4
2016-05-28T00:32:50.200Z,17.3
2016-05-28T00:32:53.138Z,17.4
2016-05-28T00:32:56.919Z,17.4
2016-05-28T00:32:59.856Z,17.4
2016-05-28T00:33:02.810Z,17.3
2016-05-28T00:33:05.606Z,17.4
2016-05-28T00:33:09.528Z,17.4
2016-05-28T00:33:12.481Z,17.4
2016-05-28T00:33:15.435Z,17.4
2016-05-28T00:33:18.372Z,17.4
2016-05-28T00:33:22.138Z,17.3
2016-05-28T00:33:24.919Z,17.4
2016-05-28T00:33:27.872Z,17.3
2016-05-28T00:33:30.825Z,17.4
2016-05-28T00:33:34.450Z,17.4
2016-05-28T00:33:37.403Z,17.4
2016-05-28T00:33:40.200Z,17.4
2016-05-28T00:33:42.997Z,17.4
2016-05-28T00:33:46.919Z,17.4
2016-05-28T00:33:49.718Z,17.4
2016-05-28T00:33:52.671Z,17.3
2016-05-28T00:33:55.608Z,17.4
2016-05-28T00:33:59.530Z,17.4
2016-05-28T00:34:02.327Z,17.5
2016-05-28T00:34:05.265Z,17.5
2016-05-28T00:34:08.202Z,17.5
2016-05-28T00:34:12.124Z,17.4
2016-05-28T00:34:14.905Z,17.3
2016-05-28T00:34:17.858Z,17.4
2016-05-28T00:34:20.812Z,17.4
2016-05-28T00:34:24.624Z,17.4
2016-05-28T00:34:27.483Z,17.4
2016-05-28T00:34:30.296Z,17.3
2016-05-28T00:34:33.562Z,17.4
2016-05-28T00:34:38.062Z,17.4
2016-05-28T00:34:40.905Z,17.4
2016-05-28T00:34:43.858Z,17.5
2016-05-28T00:34:47.296Z,17.4
2016-05-28T00:34:51.408Z,17.4
2016-05-28T00:34:54.065Z,17.5
2016-05-28T00:34:57.236Z,17.4
2016-05-28T00:35:00.049Z,17.4
2016-05-28T00:35:04.158Z,17.5
2016-05-28T00:35:07.111Z,17.4
2016-05-28T00:35:09.815Z,17.4
2016-05-28T00:35:12.627Z,17.4
2016-05-28T00:35:17.877Z,17.4
2016-05-28T00:35:21.174Z,17.5
2016-05-28T00:35:24.143Z,17.5
2016-05-28T00:35:28.799Z,17.5
2016-05-28T00:35:32.033Z,17.5
2016-05-28T00:35:34.971Z,17.5
2016-05-28T00:35:38.908Z,17.6
2016-05-28T00:35:41.846Z,17.5
2016-05-28T00:35:44.799Z,17.4
2016-05-28T00:35:47.580Z,17.5
2016-05-28T00:35:51.521Z,17.4
2016-05-28T00:35:54.177Z,17.5
2016-05-28T00:35:56.974Z,17.4
2016-05-28T00:35:59.911Z,17.4
2016-05-28T00:36:03.521Z,17.4
2016-05-28T00:36:06.474Z,17.4
2016-05-28T00:36:09.427Z,17.3
2016-05-28T00:36:12.364Z,17.4
2016-05-28T00:36:16.146Z,17.3
2016-05-28T00:36:19.083Z,17.3
2016-05-28T00:36:22.036Z,17.3
2016-05-28T00:36:25.005Z,17.3
2016-05-28T00:36:28.771Z,17.4
2016-05-28T00:36:31.724Z,17.4
2016-05-28T00:36:34.661Z,17.4
2016-05-28T00:36:37.443Z,17.4
2016-05-28T00:36:41.364Z,17.4
2016-05-28T00:36:44.161Z,17.5
2016-05-28T00:36:47.099Z,17.4
2016-05-28T00:36:50.055Z,17.5
2016-05-28T00:36:53.977Z,17.4
2016-05-28T00:36:56.914Z,17.4
2016-05-28T00:36:59.852Z,17.5
2016-05-28T00:37:02.805Z,17.4
2016-05-28T00:37:06.727Z,17.5
2016-05-28T00:37:09.680Z,17.5
2016-05-28T00:37:12.633Z,17.4
2016-05-28T00:37:15.586Z,17.5
2016-05-28T00:37:19.383Z,17.5
2016-05-28T00:37:22.164Z,17.5
2016-05-28T00:37:25.102Z,17.5
2016-05-28T00:37:27.914Z,17.4
2016-05-28T00:37:31.821Z,17.4
2016-05-28T00:37:34.617Z,17.4
2016-05-28T00:37:37.555Z,17.5
2016-05-28T00:37:40.492Z,17.4
2016-05-28T00:37:44.274Z,17.3
2016-05-28T00:37:47.211Z,17.4
2016-05-28T00:37:50.151Z,17.5
2016-05-28T00:37:52.932Z,17.5
2016-05-28T00:37:56.869Z,17.5
2016-05-28T00:37:59.823Z,17.5
2016-05-28T00:38:02.760Z,17.5
2016-05-28T00:38:05.713Z,17.5
2016-05-28T00:38:09.479Z,17.5
2016-05-28T00:38:12.416Z,17.4
2016-05-28T00:38:15.213Z,17.5
2016-05-28T00:38:18.151Z,17.5
2016-05-28T00:38:21.916Z,17.5
2016-05-28T00:38:24.573Z,17.5
2016-05-28T00:38:27.369Z,17.4
2016-05-28T00:38:30.166Z,17.3
2016-05-28T00:38:34.104Z,17.3
2016-05-28T00:38:37.041Z,17.4
2016-05-28T00:38:39.979Z,17.5
2016-05-28T00:38:42.932Z,17.4
2016-05-28T00:38:46.713Z,17.4
2016-05-28T00:38:49.669Z,17.4
2016-05-28T00:38:52.622Z,17.3
2016-05-28T00:38:55.560Z,17.4
2016-05-28T00:38:59.341Z,17.4
2016-05-28T00:39:02.279Z,17.5
2016-05-28T00:39:05.216Z,17.4
2016-05-28T00:39:08.169Z,17.4
2016-05-28T00:39:11.779Z,17.5
2016-05-28T00:39:14.732Z,17.5
2016-05-28T00:39:17.388Z,17.5
2016-05-28T00:39:20.341Z,17.4
2016-05-28T00:39:24.279Z,17.4
2016-05-28T00:39:26.763Z,17.4
2016-05-28T00:39:29.560Z,17.3
2016-05-28T00:39:32.201Z,17.4
2016-05-28T00:39:35.966Z,17.5
2016-05-28T00:39:38.904Z,17.4
2016-05-28T00:39:41.857Z,17.4
2016-05-28T00:39:44.810Z,17.4
2016-05-28T00:39:48.578Z,17.4
2016-05-28T00:39:51.515Z,17.4
2016-05-28T00:39:54.156Z,17.4
2016-05-28T00:39:57.093Z,17.4
2016-05-28T00:40:01.015Z,17.3
2016-05-28T00:40:03.953Z,17.4
2016-05-28T00:40:06.921Z,17.3
2016-05-28T00:40:09.859Z,17.3
2016-05-28T00:40:13.781Z,17.3
2016-05-28T00:40:16.562Z,17.3
2016-05-28T00:40:19.515Z,17.3
2016-05-28T00:40:22.453Z,17.2
2016-05-28T00:40:26.234Z,17.2
2016-05-28T00:40:29.171Z,17.2
2016-05-28T00:40:32.124Z,17.2
2016-05-28T00:40:35.093Z,17.1
2016-05-28T00:40:39.015Z,17.1
2016-05-28T00:40:41.953Z,17.2
2016-05-28T00:40:44.906Z,17.2
2016-05-28T00:40:47.846Z,17.2
2016-05-28T00:40:51.768Z,17.2
2016-05-28T00:40:54.721Z,17.1
2016-05-28T00:40:57.674Z,17.2
2016-05-28T00:41:00.612Z,17.2
2016-05-28T00:41:04.565Z,17.2
2016-05-28T00:41:07.502Z,17.1
2016-05-28T00:41:10.440Z,17.1
2016-05-28T00:41:13.377Z,17.1
2016-05-28T00:41:17.159Z,17.1
2016-05-28T00:41:20.096Z,17.1
2016-05-28T00:41:23.049Z,17.2
2016-05-28T00:41:26.018Z,17.1
2016-05-28T00:41:29.956Z,17.2
2016-05-28T00:41:32.893Z,17.2
2016-05-28T00:41:35.846Z,17.2
2016-05-28T00:41:38.784Z,17.2
2016-05-28T00:41:42.565Z,17.2
2016-05-28T00:41:45.190Z,17.2
2016-05-28T00:41:48.146Z,17.3
2016-05-28T00:41:50.959Z,17.2
2016-05-28T00:41:54.865Z,17.3